createdAt,value
2022-12-19T16:37:02.105Z,500.00
2022-12-19T16:38:01.971Z,500.00
2022-12-19T16:39:01.887Z,500.00
2022-12-19T16:40:01.778Z,500.00
2022-12-19T16:41:01.834Z,500.00
2022-12-19T16:42:01.554Z,400.00
2022-12-19T16:43:01.427Z,400.00
2022-12-19T16:47:44.222Z,500.00
2022-12-19T16:48:44.218Z,500.00
2022-12-19T16:49:44.221Z,500.00
2022-12-19T16:50:44.190Z,500.00
2022-12-19T16:51:44.205Z,500.00
2022-12-19T16:52:44.164Z,500.00
2022-12-19T16:53:44.189Z,500.00
2022-12-19T16:54:44.161Z,500.00
2022-12-19T16:55:44.165Z,500.00
2022-12-19T16:56:44.144Z,500.00
2022-12-19T16:57:44.147Z,506.00
2022-12-19T16:58:44.135Z,500.00
2022-12-19T16:59:44.132Z,501.00
2022-12-19T17:00:44.123Z,501.00
2022-12-19T17:01:44.303Z,503.00
2022-12-19T17:02:44.237Z,502.00
2022-12-19T17:03:44.092Z,502.00
2022-12-19T17:04:48.940Z,503.00
2022-12-19T17:05:45.069Z,497.00
2022-12-19T17:06:44.064Z,495.00
2022-12-19T17:07:44.051Z,490.00
2022-12-19T17:08:44.042Z,486.00
2022-12-19T17:09:44.040Z,484.00
2022-12-19T17:10:44.028Z,502.00
2022-12-19T17:11:44.019Z,502.00
2022-12-19T17:12:44.030Z,504.00
2022-12-19T17:13:44.019Z,518.00
2022-12-19T17:14:43.977Z,503.00
2022-12-19T17:15:44.002Z,522.00
2022-12-19T17:16:44.016Z,500.00
2022-12-19T17:17:43.986Z,509.00
2022-12-19T17:18:43.946Z,513.00
2022-12-19T17:19:43.950Z,509.00
2022-12-19T17:20:43.935Z,510.00
2022-12-19T17:21:43.956Z,536.00
2022-12-19T17:22:43.926Z,530.00
2022-12-19T17:23:43.922Z,521.00
2022-12-19T17:24:43.903Z,509.00
2022-12-19T17:25:43.921Z,509.00
2022-12-19T17:26:43.879Z,511.00
2022-12-19T17:27:43.886Z,510.00
2022-12-19T17:28:43.863Z,506.00
2022-12-19T17:29:43.890Z,510.00
2022-12-19T17:30:43.924Z,515.00
2022-12-19T17:31:43.932Z,514.00
2022-12-19T17:32:43.883Z,513.00
2022-12-19T17:33:43.852Z,512.00
2022-12-19T17:34:43.830Z,523.00
2022-12-19T17:35:43.844Z,518.00
2022-12-19T17:36:43.803Z,520.00
2022-12-19T17:37:43.832Z,518.00
2022-12-19T17:38:43.801Z,525.00
2022-12-19T17:39:43.812Z,522.00
2022-12-19T17:40:43.784Z,529.00
2022-12-19T17:41:43.777Z,528.00
2022-12-19T21:21:33.555Z,500.00
2022-12-19T21:22:33.256Z,500.00
2022-12-19T21:23:33.055Z,500.00
2022-12-19T21:24:33.053Z,500.00
2022-12-19T21:25:32.552Z,500.00
2022-12-19T21:26:32.545Z,500.00
2022-12-19T21:27:32.234Z,482.00
2022-12-19T21:28:32.153Z,463.00
2022-12-19T21:29:32.877Z,504.00
2022-12-19T21:30:32.060Z,549.00
2022-12-19T21:31:31.711Z,560.00
2022-12-19T21:32:31.568Z,648.00
2022-12-19T21:33:33.013Z,1022.00
2022-12-19T21:34:31.293Z,1040.00
2022-12-19T21:35:33.023Z,1012.00
2022-12-19T21:36:31.016Z,937.00
2022-12-19T21:37:34.096Z,964.00
2022-12-19T21:38:31.628Z,966.00
2022-12-19T21:39:30.494Z,964.00
2022-12-19T21:40:30.320Z,960.00
2022-12-19T21:41:31.009Z,936.00
2022-12-19T21:42:29.997Z,889.00
2022-12-19T21:43:30.508Z,957.00
2022-12-19T21:44:29.597Z,885.00
2022-12-19T21:45:29.502Z,901.00
2022-12-19T21:46:30.364Z,928.00
2022-12-19T21:47:29.515Z,950.00
2022-12-19T21:48:28.937Z,959.00
2022-12-19T21:49:28.614Z,977.00
2022-12-19T21:50:28.536Z,993.00
2022-12-19T21:51:28.340Z,987.00
2022-12-19T21:52:28.218Z,995.00
2022-12-19T21:53:28.064Z,1006.00
2022-12-19T21:54:28.033Z,1008.00
2022-12-19T21:55:28.066Z,1013.00
2022-12-19T21:56:27.738Z,1014.00
2022-12-19T21:57:27.534Z,1019.00
2022-12-19T21:58:27.155Z,1031.00
2022-12-19T21:59:26.838Z,1052.00
2022-12-19T22:00:26.678Z,1051.00
2022-12-19T22:01:26.588Z,1068.00
2022-12-19T22:02:26.372Z,1077.00
2022-12-19T22:03:26.442Z,1079.00
2022-12-19T22:04:26.044Z,1091.00
2022-12-19T22:05:26.050Z,1092.00
2022-12-19T22:06:28.124Z,1098.00
2022-12-19T22:07:25.560Z,1099.00
2022-12-19T22:08:25.664Z,1103.00
2022-12-19T22:09:24.960Z,1112.00
2022-12-19T22:10:24.763Z,1124.00
2022-12-19T22:11:24.552Z,1140.00
2022-12-19T22:12:24.458Z,1155.00
2022-12-19T22:13:24.583Z,1172.00
2022-12-19T22:14:24.061Z,1180.00
2022-12-19T22:15:26.935Z,1190.00
2022-12-19T22:16:27.087Z,1190.00
2022-12-19T22:17:23.573Z,1191.00
2022-12-19T22:18:23.574Z,1194.00
2022-12-19T22:19:23.089Z,1201.00
2022-12-19T22:20:26.045Z,1210.00
2022-12-19T22:21:22.781Z,1192.00
2022-12-19T22:22:22.501Z,1199.00
2022-12-19T22:23:22.279Z,1215.00
2022-12-19T22:24:22.078Z,1235.00
2022-12-19T22:25:22.603Z,1273.00
2022-12-19T22:26:21.709Z,1279.00
2022-12-19T22:27:21.503Z,1291.00
2022-12-19T22:28:21.333Z,1304.00
2022-12-19T22:29:21.092Z,1297.00
2022-12-19T22:30:21.018Z,1308.00
2022-12-19T22:34:21.168Z,1338.00
2022-12-19T22:35:21.547Z,1339.00
2022-12-19T22:36:27.367Z,1343.00
2022-12-19T22:37:21.107Z,1339.00
2022-12-19T22:38:19.408Z,1339.00
2022-12-19T22:39:19.239Z,1344.00
2022-12-19T22:40:19.014Z,1351.00
2022-12-19T22:41:18.835Z,1372.00
2022-12-19T22:42:18.616Z,1397.00
2022-12-19T22:43:18.447Z,1404.00
2022-12-19T22:44:18.348Z,1407.00
2022-12-19T22:45:18.163Z,1421.00
2022-12-19T22:46:18.053Z,1423.00
2022-12-19T22:47:17.737Z,1430.00
2022-12-19T22:48:17.573Z,1435.00
2022-12-19T22:49:17.692Z,1450.00
2022-12-19T22:50:17.676Z,1460.00
2022-12-19T22:51:17.172Z,1463.00
2022-12-19T22:52:17.156Z,1457.00
2022-12-19T22:53:16.665Z,1472.00
2022-12-19T22:54:16.702Z,1469.00
2022-12-19T22:55:16.692Z,1479.00
2022-12-19T22:56:16.172Z,1480.00
2022-12-19T22:57:15.896Z,1493.00
2022-12-19T22:58:15.570Z,1484.00
2022-12-19T22:59:15.462Z,1492.00
2022-12-19T23:00:15.254Z,1509.00
2022-12-19T23:01:15.080Z,1512.00
2022-12-19T23:02:14.977Z,1510.00
2022-12-19T23:03:14.813Z,1520.00
2022-12-19T23:04:14.734Z,1524.00
2022-12-19T23:05:14.298Z,1535.00
2022-12-19T23:06:14.088Z,1538.00
2022-12-19T23:07:13.870Z,1539.00
2022-12-19T23:08:13.689Z,1546.00
2022-12-19T23:09:13.505Z,1558.00
2022-12-19T23:10:13.691Z,1559.00
2022-12-19T23:24:13.677Z,1616.00
2022-12-19T23:28:09.935Z,1628.00
2022-12-19T23:29:09.756Z,1639.00
2022-12-19T23:33:08.935Z,1657.00
2022-12-19T23:34:08.749Z,1658.00
2022-12-19T23:36:09.177Z,1672.00
2022-12-19T23:37:11.175Z,1657.00
2022-12-19T23:38:08.046Z,1658.00
2022-12-19T23:39:07.861Z,1660.00
2022-12-19T23:40:07.652Z,1665.00
2022-12-19T23:41:07.447Z,1673.00
2022-12-19T23:42:07.247Z,1674.00
2022-12-19T23:43:07.657Z,1692.00
2022-12-19T23:44:07.177Z,1682.00
2022-12-19T23:46:07.620Z,1697.00
